Time;durP1;ratioP1;P1;durP2;ratioP2;P2;SDS_P1;SDS_P2;PMS_P1;PMS_P2;Temp;Humidity;BMP_temperature;BMP_pressure;BME280_temperature;BME280_humidity;BME280_pressure;Samples;Min_cycle;Max_cycle;Signal;HPM_P1;HPM_P2
2023/11/29 00:02:15;;;;;;;2.10;0.60;;;;;;;0.64;87.58;93580.79;106746;1275;25249;-79
2023/11/29 00:04:44;;;;;;;2.50;0.90;;;;;;;0.61;87.65;93585.15;106670;1275;25294;-78
2023/11/29 00:07:12;;;;;;;3.00;1.00;;;;;;;0.57;87.95;93587.96;106690;1275;24379;-79
2023/11/29 00:09:40;;;;;;;1.80;0.60;;;;;;;0.54;88.23;93596.66;106640;1275;25738;-78
2023/11/29 00:12:08;;;;;;;2.20;0.60;;;;;;;0.51;88.15;93602.23;106693;1275;25309;-79
2023/11/29 00:14:37;;;;;;;1.80;0.80;;;;;;;0.48;88.31;93611.09;106707;1275;22733;-80
2023/11/29 00:17:05;;;;;;;1.20;0.30;;;;;;;0.42;88.34;93611.15;106964;1275;24218;-79
2023/11/29 00:19:43;;;;;;;0.70;0.30;;;;;;;0.43;88.08;93611.66;106961;1275;24245;-79
2023/11/29 00:22:11;;;;;;;0.10;0.10;;;;;;;0.44;87.95;93624.98;106753;1275;25727;-80
2023/11/29 00:24:46;;;;;;;0.60;0.30;;;;;;;0.39;87.25;93628.48;106736;1275;22791;-79
2023/11/29 00:27:16;;;;;;;0.30;0.20;;;;;;;0.39;87.40;93635.58;106705;1275;22532;-79
2023/11/29 00:29:44;;;;;;;0.20;0.20;;;;;;;0.41;87.34;93641.27;106705;1275;22514;-79
2023/11/29 00:32:13;;;;;;;1.30;0.20;;;;;;;0.45;87.48;93650.05;106743;1275;22933;-79
2023/11/29 00:34:41;;;;;;;0.30;0.30;;;;;;;0.46;87.39;93646.05;106656;1275;22550;-79
2023/11/29 00:37:09;;;;;;;1.50;0.40;;;;;;;0.48;87.27;93649.67;106707;1275;23884;-79
2023/11/29 00:39:37;;;;;;;0.30;0.30;;;;;;;0.49;86.95;93655.54;106725;1260;22670;-79
2023/11/29 00:42:06;;;;;;;0.40;0.30;;;;;;;0.51;86.83;93664.67;106719;1273;23971;-79
2023/11/29 00:44:34;;;;;;;0.30;0.20;;;;;;;0.50;86.77;93669.36;106628;1275;25363;-79
2023/11/29 00:47:02;;;;;;;0.30;0.30;;;;;;;0.49;86.74;93678.89;106996;1275;23064;-79
2023/11/29 00:49:31;;;;;;;0.30;0.30;;;;;;;0.54;87.12;93683.52;106687;1275;25354;-78
2023/11/29 00:51:59;;;;;;;0.40;0.30;;;;;;;0.58;87.03;93690.04;106814;1275;24342;-79
2023/11/29 00:54:27;;;;;;;0.30;0.30;;;;;;;0.57;86.77;93696.27;106714;1275;25303;-79
2023/11/29 00:56:55;;;;;;;0.40;0.40;;;;;;;0.55;86.41;93699.92;106728;1275;25462;-79
2023/11/29 00:59:24;;;;;;;0.80;0.60;;;;;;;0.52;86.47;93705.48;106588;1275;26593;-79
2023/11/29 01:01:55;;;;;;;2.10;0.80;;;;;;;0.51;86.59;93709.66;106818;1275;24382;-79
2023/11/29 01:04:23;;;;;;;1.90;0.90;;;;;;;0.49;86.65;93715.38;106624;1275;24289;-79
2023/11/29 01:06:51;;;;;;;0.50;0.50;;;;;;;0.48;86.75;93719.03;106857;1275;24454;-79
2023/11/29 01:09:19;;;;;;;0.50;0.30;;;;;;;0.43;86.69;93725.13;106797;1275;22636;-79
2023/11/29 01:11:48;;;;;;;0.50;0.50;;;;;;;0.37;86.77;93733.16;106668;1275;25259;-79
2023/11/29 01:14:16;;;;;;;1.10;0.70;;;;;;;0.35;86.81;93734.38;106674;1252;22697;-79
2023/11/29 01:16:44;;;;;;;0.80;0.60;;;;;;;0.33;87.12;93736.30;106705;1275;24289;-80
2023/11/29 01:19:13;;;;;;;0.90;0.60;;;;;;;0.31;87.03;93737.36;106645;1275;22539;-80
2023/11/29 01:21:42;;;;;;;0.90;0.90;;;;;;;0.29;87.00;93746.36;106638;1275;25335;-79
2023/11/29 01:24:10;;;;;;;0.70;0.60;;;;;;;0.27;87.26;93748.98;106627;1272;22514;-79
2023/11/29 01:26:38;;;;;;;0.60;0.60;;;;;;;0.26;87.42;93751.92;106701;1275;22634;-80
2023/11/29 01:29:07;;;;;;;2.80;0.90;;;;;;;0.23;87.50;93754.20;106705;1275;22650;-79
2023/11/29 01:31:38;;;;;;;2.70;1.50;;;;;;;0.16;87.91;93759.44;106714;1275;25425;-80
2023/11/29 01:34:06;;;;;;;2.50;1.40;;;;;;;0.13;88.38;93764.33;106735;1275;22534;-80
2023/11/29 01:36:35;;;;;;;3.50;1.70;;;;;;;0.12;88.47;93767.45;106699;1264;24289;-79
2023/11/29 01:39:03;;;;;;;2.30;1.90;;;;;;;0.12;88.78;93771.58;106744;1275;22542;-79
2023/11/29 01:41:31;;;;;;;3.30;2.10;;;;;;;0.10;89.03;93775.06;106717;1275;24219;-80
2023/11/29 01:43:59;;;;;;;4.60;2.50;;;;;;;0.13;88.86;93778.84;106821;1275;25259;-80
2023/11/29 01:46:28;;;;;;;3.30;2.10;;;;;;;0.14;89.02;93781.42;107041;1275;22530;-79
2023/11/29 01:48:57;;;;;;;6.60;3.30;;;;;;;0.17;89.17;93780.52;106711;1275;25304;-79
2023/11/29 01:51:25;;;;;;;7.70;4.40;;;;;;;0.18;89.18;93782.42;106900;1275;25316;-79
2023/11/29 01:53:55;;;;;;;5.80;3.20;;;;;;;0.19;89.38;93787.09;106923;1275;22668;-79
2023/11/29 01:56:26;;;;;;;3.50;2.80;;;;;;;0.17;89.27;93791.09;106715;1275;22518;-78
2023/11/29 01:58:55;;;;;;;5.30;3.00;;;;;;;0.15;89.25;93789.20;106588;1275;22524;-79
2023/11/29 02:01:23;;;;;;;6.00;4.20;;;;;;;0.18;89.39;93799.02;106652;1275;22543;-79
2023/11/29 02:03:53;;;;;;;6.30;4.20;;;;;;;0.24;89.48;93803.14;106710;1275;24222;-79
2023/11/29 02:06:21;;;;;;;5.60;3.50;;;;;;;0.26;89.27;93805.88;106719;1275;24283;-79
2023/11/29 02:08:50;;;;;;;4.90;3.40;;;;;;;0.22;89.24;93812.14;106804;1275;22568;-79
2023/11/29 02:11:20;;;;;;;5.20;4.00;;;;;;;0.24;89.15;93816.95;106611;1275;22546;-79
2023/11/29 02:13:48;;;;;;;4.90;3.50;;;;;;;0.26;89.03;93821.27;106710;1275;24276;-79
2023/11/29 02:16:16;;;;;;;5.90;3.90;;;;;;;0.31;88.99;93827.98;106586;1275;22753;-79
2023/11/29 02:18:45;;;;;;;3.90;3.00;;;;;;;0.30;88.57;93828.69;106595;1275;22528;-79
2023/11/29 02:21:13;;;;;;;4.10;2.70;;;;;;;0.31;88.41;93834.38;106666;1275;22648;-79
2023/11/29 02:23:51;;;;;;;4.30;3.10;;;;;;;0.33;88.57;93834.20;106626;1275;25425;-79
2023/11/29 02:26:19;;;;;;;4.30;2.00;;;;;;;0.36;88.51;93833.81;106542;1275;25410;-79
2023/11/29 02:28:47;;;;;;;2.70;2.30;;;;;;;0.36;87.24;93835.36;106770;1275;22534;-79
2023/11/29 02:31:15;;;;;;;3.50;2.40;;;;;;;0.34;87.10;93845.93;106726;1275;22537;-79
2023/11/29 02:33:44;;;;;;;2.80;2.30;;;;;;;0.31;86.73;93849.06;106690;1275;25438;-79
2023/11/29 02:36:12;;;;;;;4.50;2.60;;;;;;;0.28;86.43;93852.90;106662;1275;22534;-79
2023/11/29 02:38:40;;;;;;;3.40;2.70;;;;;;;0.24;86.01;93861.75;106614;1275;24483;-79
2023/11/29 02:41:09;;;;;;;3.70;2.90;;;;;;;0.19;85.80;93866.45;106596;1263;24277;-79
2023/11/29 02:43:37;;;;;;;3.10;2.10;;;;;;;0.17;85.93;93873.03;106503;1275;24334;-79
2023/11/29 02:46:05;;;;;;;4.90;3.30;;;;;;;0.14;85.83;93875.99;106746;1275;25297;-79
2023/11/29 02:48:33;;;;;;;4.50;3.40;;;;;;;0.12;85.99;93877.56;106702;1274;22589;-79
2023/11/29 02:51:03;;;;;;;6.00;3.60;;;;;;;0.10;86.04;93874.48;106764;1274;25517;-79
2023/11/29 02:53:31;;;;;;;4.60;3.70;;;;;;;0.08;86.12;93875.52;106779;1274;23943;-79
2023/11/29 02:55:59;;;;;;;4.30;3.60;;;;;;;0.10;86.36;93875.52;106832;1274;24407;-79
2023/11/29 02:58:28;;;;;;;5.10;3.80;;;;;;;0.14;86.43;93881.17;106732;1274;25258;-79
2023/11/29 03:00:56;;;;;;;5.50;4.00;;;;;;;0.13;86.53;93878.59;106759;1274;25390;-79
2023/11/29 03:03:24;;;;;;;6.20;4.20;;;;;;;0.13;86.48;93874.96;106712;1274;22575;-79
2023/11/29 03:05:54;;;;;;;6.70;4.20;;;;;;;0.12;86.71;93876.53;107099;1274;25351;-79
2023/11/29 03:08:22;;;;;;;5.80;4.40;;;;;;;0.14;86.77;93881.70;106843;1274;24284;-79
2023/11/29 03:10:52;;;;;;;6.30;4.40;;;;;;;0.19;87.11;93869.20;106803;1274;22650;-79
2023/11/29 03:13:26;;;;;;;6.30;4.40;;;;;;;0.23;86.83;93871.09;107073;1274;22539;-79
2023/11/29 03:15:54;;;;;;;7.90;5.30;;;;;;;0.22;86.54;93864.69;106811;1274;22630;-78
2023/11/29 03:18:23;;;;;;;9.90;6.70;;;;;;;0.21;86.90;93863.33;106779;1274;24226;-79
2023/11/29 03:20:51;;;;;;;10.10;6.90;;;;;;;0.23;86.88;93871.95;106723;1274;22640;-78
2023/11/29 03:23:19;;;;;;;8.50;6.00;;;;;;;0.22;86.82;93877.84;106772;1274;25287;-78
2023/11/29 03:25:47;;;;;;;10.70;6.90;;;;;;;0.19;86.84;93886.68;106712;1274;22533;-79
2023/11/29 03:28:16;;;;;;;10.50;6.90;;;;;;;0.18;86.89;93892.92;106689;1274;22520;-79
2023/11/29 03:30:44;;;;;;;9.70;5.90;;;;;;;0.15;86.98;93898.81;106773;1274;25259;-78
2023/11/29 03:33:14;;;;;;;11.60;6.50;;;;;;;0.10;86.90;93901.43;106835;1263;25385;-78
2023/11/29 03:35:42;;;;;;;10.20;6.50;;;;;;;0.06;86.97;93905.44;106739;1274;22534;-78
2023/11/29 03:38:11;;;;;;;10.50;6.40;;;;;;;0.04;86.97;93909.08;106900;1274;22582;-78
2023/11/29 03:40:39;;;;;;;6.40;4.90;;;;;;;0.01;87.26;93924.48;106790;1274;22539;-79
2023/11/29 03:43:07;;;;;;;9.70;6.80;;;;;;;-0.05;87.09;93928.66;106802;1270;22709;-78
2023/11/29 03:45:35;;;;;;;11.20;7.70;;;;;;;-0.09;87.19;93934.71;106728;1274;22524;-79
2023/11/29 03:48:04;;;;;;;12.40;8.30;;;;;;;-0.12;87.21;93939.40;106753;1274;24051;-78
2023/11/29 03:50:32;;;;;;;8.90;6.50;;;;;;;-0.18;87.54;93953.59;106597;1275;24420;-79
2023/11/29 03:53:00;;;;;;;9.40;7.00;;;;;;;-0.23;87.66;93951.37;106712;1275;24396;-78
2023/11/29 03:55:28;;;;;;;8.10;5.90;;;;;;;-0.30;87.92;93954.52;106777;1275;22554;-77
2023/11/29 03:57:57;;;;;;;8.50;5.60;;;;;;;-0.34;87.98;93958.15;106989;1275;25482;-77
2023/11/29 04:00:25;;;;;;;13.20;8.00;;;;;;;-0.38;88.31;93955.74;106958;1275;24274;-77
2023/11/29 04:02:54;;;;;;;9.80;5.80;;;;;;;-0.42;88.68;93949.36;106817;1275;24202;-78
2023/11/29 04:05:23;;;;;;;10.80;6.40;;;;;;;-0.45;88.41;93944.19;106707;1275;22528;-77
2023/11/29 04:07:53;;;;;;;9.20;6.30;;;;;;;-0.46;88.59;93947.48;106717;1275;25355;-77
2023/11/29 04:10:21;;;;;;;10.00;6.10;;;;;;;-0.49;88.84;93949.39;106594;1275;25376;-78
2023/11/29 04:12:50;;;;;;;8.50;5.30;;;;;;;-0.48;88.82;93952.33;106680;1275;22526;-77
2023/11/29 04:15:19;;;;;;;8.20;6.20;;;;;;;-0.50;89.11;93953.36;106702;1275;25431;-78
2023/11/29 04:17:47;;;;;;;12.30;7.50;;;;;;;-0.50;89.39;93955.09;106571;1275;25323;-78
2023/11/29 04:20:15;;;;;;;13.30;8.40;;;;;;;-0.49;89.56;93964.41;106760;1275;25453;-78
2023/11/29 04:22:47;;;;;;;9.80;6.50;;;;;;;-0.47;89.82;93964.92;106648;1275;22525;-77
2023/11/29 04:25:15;;;;;;;10.10;7.20;;;;;;;-0.47;89.78;93962.85;106723;1265;22545;-77
2023/11/29 04:27:44;;;;;;;13.20;7.70;;;;;;;-0.44;89.93;93963.54;107049;1275;22527;-77
2023/11/29 04:30:12;;;;;;;11.40;7.10;;;;;;;-0.43;90.00;93962.15;106673;1275;22699;-77
2023/11/29 04:32:41;;;;;;;9.80;6.30;;;;;;;-0.40;90.04;93961.27;106452;1275;22545;-77
2023/11/29 04:35:10;;;;;;;11.90;7.70;;;;;;;-0.38;90.10;93961.27;106718;1275;24326;-78
2023/11/29 04:37:39;;;;;;;10.00;6.70;;;;;;;-0.39;90.06;93964.21;106674;1275;23905;-77
2023/11/29 04:40:08;;;;;;;8.50;5.40;;;;;;;-0.38;90.06;93969.39;106915;1275;23390;-77
2023/11/29 04:42:36;;;;;;;6.20;4.40;;;;;;;-0.37;90.10;93966.27;106587;1275;22665;-77
2023/11/29 04:45:05;;;;;;;7.40;5.10;;;;;;;-0.36;90.17;93969.20;106585;1275;22527;-77
2023/11/29 04:47:33;;;;;;;8.20;5.50;;;;;;;-0.33;90.10;93973.86;106614;1275;25491;-77
2023/11/29 04:50:03;;;;;;;7.40;5.90;;;;;;;-0.31;90.12;93976.27;106773;1275;22656;-77
2023/11/29 04:52:33;;;;;;;6.50;4.80;;;;;;;-0.29;90.07;93977.14;106747;1275;22532;-77
2023/11/29 04:55:02;;;;;;;7.10;4.90;;;;;;;-0.29;89.93;93987.16;106684;1275;25428;-77
2023/11/29 04:57:30;;;;;;;6.60;4.70;;;;;;;-0.26;90.06;93990.09;106688;1275;25418;-77
2023/11/29 04:59:58;;;;;;;7.50;5.30;;;;;;;-0.25;89.95;93988.36;106630;1275;25358;-77
2023/11/29 05:02:26;;;;;;;5.20;4.20;;;;;;;-0.27;89.93;93988.88;106704;1275;25301;-77
2023/11/29 05:04:54;;;;;;;6.00;4.30;;;;;;;-0.29;90.15;93996.67;106648;1275;26154;-77
2023/11/29 05:07:23;;;;;;;7.00;5.20;;;;;;;-0.30;90.17;94001.86;106705;1275;23014;-76
2023/11/29 05:09:51;;;;;;;6.80;5.10;;;;;;;-0.31;90.29;94001.51;106701;1275;22628;-77
2023/11/29 05:12:19;;;;;;;9.50;6.10;;;;;;;-0.30;90.31;94003.92;106556;1275;24471;-77
2023/11/29 05:14:47;;;;;;;10.20;6.60;;;;;;;-0.28;90.27;94016.35;106659;1275;22530;-77
2023/11/29 05:17:16;;;;;;;9.40;6.70;;;;;;;-0.26;90.35;94017.04;106683;1275;24477;-77
2023/11/29 05:19:44;;;;;;;9.00;6.30;;;;;;;-0.21;90.24;94020.13;106632;1275;22766;-77
2023/11/29 05:22:12;;;;;;;10.00;6.60;;;;;;;-0.17;90.22;94020.46;106709;1275;24212;-77
2023/11/29 05:24:42;;;;;;;9.60;5.70;;;;;;;-0.13;90.15;94021.84;106790;1275;22527;-77
2023/11/29 05:27:10;;;;;;;12.00;6.70;;;;;;;-0.13;89.90;94026.50;106993;1275;22569;-77
2023/11/29 05:29:38;;;;;;;8.20;5.70;;;;;;;-0.12;89.84;94032.04;106878;1275;22765;-76
2023/11/29 05:32:06;;;;;;;7.70;5.50;;;;;;;-0.12;89.71;94037.23;106690;1275;24307;-77
2023/11/29 05:34:35;;;;;;;8.80;5.80;;;;;;;-0.12;89.83;94039.30;106676;1275;24313;-76
2023/11/29 05:37:03;;;;;;;7.30;5.10;;;;;;;-0.10;89.80;94038.42;106647;1275;22527;-77
2023/11/29 05:39:31;;;;;;;9.90;6.30;;;;;;;-0.09;89.84;94046.90;106650;1275;22680;-76
2023/11/29 05:41:59;;;;;;;8.30;5.60;;;;;;;-0.10;89.83;94045.69;106671;1275;22650;-77
2023/11/29 05:44:28;;;;;;;6.70;4.60;;;;;;;-0.13;89.65;94057.09;106710;1275;24222;-76
2023/11/29 05:46:56;;;;;;;5.30;3.60;;;;;;;-0.27;88.57;94063.00;106644;1275;22746;-76
2023/11/29 05:49:24;;;;;;;6.40;4.10;;;;;;;-0.36;88.23;94065.27;106788;1274;24241;-77
2023/11/29 05:51:52;;;;;;;5.50;4.40;;;;;;;-0.50;87.70;94074.62;106732;1274;24279;-76
2023/11/29 05:54:21;;;;;;;7.20;4.70;;;;;;;-0.62;87.78;94081.02;106741;1274;22526;-77
2023/11/29 05:56:49;;;;;;;5.90;3.60;;;;;;;-0.74;87.71;94089.65;106768;1274;25430;-76
2023/11/29 05:59:18;;;;;;;11.10;5.10;;;;;;;-0.87;87.89;94097.06;106884;1274;22526;-77
2023/11/29 06:01:46;;;;;;;8.00;4.30;;;;;;;-1.02;87.76;94106.36;106806;1264;22517;-76
2023/11/29 06:04:15;;;;;;;6.30;4.30;;;;;;;-1.18;87.22;94114.96;106875;1274;25427;-76
2023/11/29 06:06:44;;;;;;;7.90;5.30;;;;;;;-1.34;87.32;94117.33;106927;1274;22540;-77
2023/11/29 06:09:14;;;;;;;8.50;5.50;;;;;;;-1.48;87.62;94122.98;107071;1274;22645;-77
2023/11/29 06:11:43;;;;;;;9.40;5.80;;;;;;;-1.60;87.72;94124.14;106812;1274;22517;-75
2023/11/29 06:14:11;;;;;;;9.50;5.10;;;;;;;-1.66;87.94;94132.21;106970;1274;25350;-75
2023/11/29 06:16:40;;;;;;;10.50;7.30;;;;;;;-1.72;88.11;94134.95;106787;1274;22538;-76
2023/11/29 06:19:08;;;;;;;13.60;7.30;;;;;;;-1.76;88.27;94133.89;107032;1274;22530;-76
2023/11/29 06:21:37;;;;;;;17.40;7.90;;;;;;;-1.76;88.24;94138.89;107228;1274;25504;-75
2023/11/29 06:24:06;;;;;;;17.40;8.10;;;;;;;-1.79;88.04;94144.74;106964;1274;23148;-76
2023/11/29 06:26:34;;;;;;;15.70;8.70;;;;;;;-1.80;87.79;94153.19;106894;1274;25488;-77
2023/11/29 06:29:03;;;;;;;15.40;9.60;;;;;;;-1.86;87.35;94158.83;106856;1274;24413;-76
2023/11/29 06:31:32;;;;;;;11.90;7.20;;;;;;;-1.89;87.46;94163.80;106802;1274;22534;-76
2023/11/29 06:34:00;;;;;;;14.50;8.10;;;;;;;-1.91;87.62;94170.18;106919;1274;22615;-76
2023/11/29 06:36:28;;;;;;;10.30;6.40;;;;;;;-1.91;87.68;94175.02;106860;1274;23886;-76
2023/11/29 06:39:04;;;;;;;12.10;6.90;;;;;;;-1.92;87.47;94183.27;106725;1274;22817;-79
2023/11/29 06:41:32;;;;;;;13.10;7.30;;;;;;;-1.97;87.36;94192.88;107017;1274;23400;-76
2023/11/29 06:44:00;;;;;;;10.50;6.70;;;;;;;-1.98;87.42;94204.43;106902;1274;22523;-75
2023/11/29 06:46:28;;;;;;;13.90;8.50;;;;;;;-2.01;87.39;94211.81;106783;1272;22574;-78
2023/11/29 06:48:57;;;;;;;14.60;9.30;;;;;;;-2.03;87.36;94214.92;106880;1274;22649;-77
2023/11/29 06:51:25;;;;;;;14.30;8.60;;;;;;;-2.02;87.19;94216.63;106922;1274;22575;-79
2023/11/29 06:53:53;;;;;;;13.70;7.80;;;;;;;-2.05;86.94;94221.45;106929;1274;24242;-75
2023/11/29 06:56:22;;;;;;;16.80;9.10;;;;;;;-2.09;86.87;94226.92;106952;1263;22524;-75
2023/11/29 06:58:51;;;;;;;14.30;8.70;;;;;;;-2.10;87.13;94228.63;106673;1274;237099;-76
2023/11/29 07:01:20;;;;;;;15.40;10.00;;;;;;;-2.12;87.06;94232.77;106815;1274;22520;-76
2023/11/29 07:03:48;;;;;;;16.00;8.20;;;;;;;-2.14;87.08;94236.36;106750;1268;22569;-76
2023/11/29 07:06:24;;;;;;;16.70;8.60;;;;;;;-2.18;86.78;94237.53;106858;1274;22830;-77
2023/11/29 07:08:53;;;;;;;14.70;8.40;;;;;;;-2.21;86.72;94242.67;107213;1274;22523;-76
2023/11/29 07:11:21;;;;;;;14.90;8.50;;;;;;;-2.27;86.57;94241.77;107077;1274;22660;-76
2023/11/29 07:13:49;;;;;;;15.20;8.40;;;;;;;-2.32;86.71;94250.67;107120;1274;22572;-76
2023/11/29 07:16:18;;;;;;;14.30;8.60;;;;;;;-2.31;86.87;94255.85;106952;1274;22752;-76
2023/11/29 07:18:46;;;;;;;14.60;8.10;;;;;;;-2.32;86.80;94256.19;107210;1274;24047;-75
2023/11/29 07:21:14;;;;;;;16.30;8.90;;;;;;;-2.36;86.62;94258.56;107060;1274;25601;-78
2023/11/29 07:23:42;;;;;;;14.80;8.80;;;;;;;-2.42;86.70;94258.69;106888;1274;22650;-78
2023/11/29 07:26:10;;;;;;;12.70;8.20;;;;;;;-2.46;86.70;94261.23;106810;1274;22531;-78
2023/11/29 07:28:40;;;;;;;17.10;9.70;;;;;;;-2.48;86.81;94270.16;106818;1274;24359;-77
2023/11/29 07:31:09;;;;;;;15.20;8.30;;;;;;;-2.49;87.13;94280.14;106796;1274;22570;-75
2023/11/29 07:33:37;;;;;;;12.90;8.10;;;;;;;-2.49;87.25;94282.04;106806;1274;22619;-76
2023/11/29 07:36:12;;;;;;;14.50;8.60;;;;;;;-2.49;87.46;94288.06;106642;1274;24966;-77
2023/11/29 07:38:41;;;;;;;17.00;9.30;;;;;;;-2.49;87.35;94295.64;107028;1274;25468;-77
2023/11/29 07:41:10;;;;;;;12.80;7.90;;;;;;;-2.45;87.32;94298.95;107076;1274;22997;-78
2023/11/29 07:43:38;;;;;;;16.70;9.70;;;;;;;-2.43;87.36;94302.94;107009;1274;22531;-76
2023/11/29 07:46:06;;;;;;;14.60;8.30;;;;;;;-2.38;87.63;94309.00;107057;1274;25415;-77
2023/11/29 07:48:34;;;;;;;16.40;8.80;;;;;;;-2.29;87.81;94314.61;106871;1266;22642;-75
2023/11/29 07:51:03;;;;;;;14.20;8.30;;;;;;;-2.21;87.65;94313.30;106718;1275;25336;-77
2023/11/29 07:53:32;;;;;;;13.50;8.60;;;;;;;-2.14;87.46;94323.01;106876;1275;25371;-75
2023/11/29 07:56:00;;;;;;;16.30;8.80;;;;;;;-2.08;87.35;94325.30;106866;1275;22527;-75
2023/11/29 07:58:29;;;;;;;11.90;7.90;;;;;;;-2.06;86.99;94324.13;107113;1275;22531;-76
2023/11/29 08:01:04;;;;;;;13.00;7.90;;;;;;;-2.05;86.96;94324.30;107110;1275;22955;-75
2023/11/29 08:03:32;;;;;;;14.20;7.80;;;;;;;-2.08;86.49;94324.61;106929;1275;25342;-76
2023/11/29 08:06:01;;;;;;;15.70;8.60;;;;;;;-2.11;86.58;94324.75;107189;1275;22947;-74
2023/11/29 08:08:29;;;;;;;13.80;8.50;;;;;;;-2.12;86.61;94329.92;107159;1275;24240;-74
2023/11/29 08:10:57;;;;;;;12.90;7.80;;;;;;;-2.11;86.62;94330.63;106881;1275;22542;-76
2023/11/29 08:13:26;;;;;;;15.40;9.10;;;;;;;-2.10;86.46;94335.80;106926;1275;25370;-76
2023/11/29 08:15:56;;;;;;;13.10;8.20;;;;;;;-2.05;86.68;94338.43;106707;1275;23888;-77
2023/11/29 08:18:24;;;;;;;17.90;9.30;;;;;;;-2.02;86.44;94339.31;106811;1253;22638;-76
2023/11/29 08:20:53;;;;;;;18.70;9.50;;;;;;;-2.01;86.18;94346.21;106887;1275;22633;-79
2023/11/29 08:23:21;;;;;;;17.10;9.60;;;;;;;-2.05;85.75;94355.83;106864;1275;25597;-76
2023/11/29 08:25:50;;;;;;;15.20;8.80;;;;;;;-2.06;85.91;94355.99;107087;1274;24374;-77
2023/11/29 08:28:19;;;;;;;14.80;9.20;;;;;;;-2.10;85.69;94357.15;107041;1274;22592;-76
2023/11/29 08:30:47;;;;;;;14.60;9.20;;;;;;;-2.14;85.78;94359.36;107137;1274;26660;-77
2023/11/29 08:33:16;;;;;;;16.10;8.90;;;;;;;-2.17;85.81;94368.29;106953;1266;22776;-78
2023/11/29 08:35:46;;;;;;;18.50;10.80;;;;;;;-2.21;85.97;94373.77;107090;1274;24464;-76
2023/11/29 08:38:15;;;;;;;16.90;9.20;;;;;;;-2.24;86.07;94372.36;106838;1274;24397;-76
2023/11/29 08:40:43;;;;;;;19.60;11.20;;;;;;;-2.23;86.15;94372.88;106854;1274;25178;-76
2023/11/29 08:43:12;;;;;;;19.00;10.90;;;;;;;-2.19;86.40;94372.92;106972;1253;22647;-75
2023/11/29 08:45:51;;;;;;;15.60;9.80;;;;;;;-2.18;86.39;94379.14;107062;1274;22576;-75
2023/11/29 08:48:19;;;;;;;21.80;11.00;;;;;;;-2.19;86.34;94385.85;107028;1274;22535;-74
2023/11/29 08:50:52;;;;;;;18.60;11.00;;;;;;;-2.18;86.29;94386.04;106893;1275;25363;-75
2023/11/29 08:53:22;;;;;;;17.70;11.00;;;;;;;-2.20;86.41;94387.38;106997;1275;22531;-77
2023/11/29 08:56:17;;;;;;;17.50;10.30;;;;;;;-2.28;86.72;94392.65;106774;1275;22545;-77
2023/11/29 08:58:48;;;;;;;19.20;10.20;;;;;;;-2.29;86.43;94395.90;106727;1275;22531;-77
2023/11/29 09:01:20;;;;;;;18.90;11.00;;;;;;;-2.32;86.43;94392.58;106662;1275;22598;-77
2023/11/29 09:03:49;;;;;;;18.60;10.70;;;;;;;-2.35;86.49;94396.02;106866;1272;22524;-76
2023/11/29 09:06:19;;;;;;;19.20;9.90;;;;;;;-2.38;86.53;94402.86;106928;1275;22644;-78
2023/11/29 09:08:47;;;;;;;19.60;11.70;;;;;;;-2.39;86.72;94403.71;106939;1275;22661;-75
2023/11/29 09:11:16;;;;;;;32.10;13.90;;;;;;;-2.35;86.72;94406.33;106760;1275;22527;-77
2023/11/29 09:13:48;;;;;;;20.70;11.50;;;;;;;-2.29;86.77;94406.75;107046;1275;22529;-77
2023/11/29 09:16:18;;;;;;;25.40;13.30;;;;;;;-2.27;86.58;94408.51;106997;1275;23349;-76
2023/11/29 09:18:48;;;;;;;21.20;12.10;;;;;;;-2.21;86.56;94408.22;107116;1260;25079;-76
2023/11/29 09:21:17;;;;;;;22.40;12.60;;;;;;;-2.16;86.23;94412.58;107223;1275;23435;-76
2023/11/29 09:23:45;;;;;;;21.10;10.80;;;;;;;-2.13;86.31;94414.16;106985;1275;25358;-76
2023/11/29 09:26:13;;;;;;;23.60;12.10;;;;;;;-2.09;86.29;94413.86;106963;1275;22786;-74
2023/11/29 09:28:42;;;;;;;20.00;11.50;;;;;;;-2.07;86.06;94417.32;106973;1275;24474;-74
2023/11/29 09:31:13;;;;;;;18.10;9.70;;;;;;;-1.97;86.05;94412.77;106990;1275;24402;-75
2023/11/29 09:33:42;;;;;;;18.30;10.00;;;;;;;-1.96;85.52;94418.13;110523;1275;22182;-77
2023/11/29 09:36:10;;;;;;;20.20;12.30;;;;;;;-1.96;85.37;94417.45;107892;1275;22647;-74
2023/11/29 09:38:39;;;;;;;20.90;12.00;;;;;;;-1.90;85.41;94418.69;106748;1254;22520;-75
2023/11/29 09:41:07;;;;;;;21.30;12.50;;;;;;;-1.88;85.13;94422.16;106910;1275;22565;-75
2023/11/29 09:43:36;;;;;;;23.30;13.80;;;;;;;-1.85;85.10;94422.72;106916;1275;23332;-75
2023/11/29 09:46:04;;;;;;;19.40;11.30;;;;;;;-1.81;84.73;94430.17;106811;1275;22644;-75
2023/11/29 09:48:33;;;;;;;17.00;10.50;;;;;;;-1.89;84.08;94428.20;106874;1275;25375;-76
2023/11/29 09:51:01;;;;;;;21.20;11.40;;;;;;;-1.96;84.07;94428.48;106874;1275;22537;-73
2023/11/29 09:53:30;;;;;;;17.30;9.60;;;;;;;-1.99;84.32;94434.98;106845;1275;24218;-75
2023/11/29 09:55:59;;;;;;;24.40;12.40;;;;;;;-2.02;84.27;94434.95;106957;1275;22525;-75
2023/11/29 09:58:27;;;;;;;23.20;11.90;;;;;;;-2.04;84.38;94438.20;106902;1275;26106;-75
2023/11/29 10:00:56;;;;;;;23.10;12.70;;;;;;;-2.10;84.26;94440.73;106891;1275;25231;-73
2023/11/29 10:03:26;;;;;;;19.90;12.20;;;;;;;-2.18;84.46;94443.90;106879;1275;22604;-74
2023/11/29 10:05:55;;;;;;;21.30;12.00;;;;;;;-2.21;84.54;94451.80;106842;1275;22528;-76
2023/11/29 10:08:23;;;;;;;18.30;10.10;;;;;;;-2.25;84.47;94448.31;106873;1275;22545;-75
2023/11/29 10:10:53;;;;;;;26.60;12.90;;;;;;;-2.28;84.74;94450.69;106903;1274;22526;-76
2023/11/29 10:13:22;;;;;;;22.70;10.80;;;;;;;-2.25;84.92;94454.15;106889;1275;23140;-76
2023/11/29 10:15:51;;;;;;;22.20;12.50;;;;;;;-2.28;85.15;94453.61;107029;1274;22675;-76
2023/11/29 10:18:20;;;;;;;22.40;12.60;;;;;;;-2.29;85.04;94461.17;107033;1275;22644;-75
2023/11/29 10:20:50;;;;;;;27.00;12.70;;;;;;;-2.27;85.25;94465.86;106801;1266;22531;-76
2023/11/29 10:23:34;;;;;;;23.20;11.80;;;;;;;-2.22;85.36;94471.94;107139;1275;25266;-75
2023/11/29 10:26:02;;;;;;;22.20;11.80;;;;;;;-2.22;85.05;94473.50;107068;1275;22929;-76
2023/11/29 10:28:31;;;;;;;27.90;13.70;;;;;;;-2.24;85.18;94477.61;106904;1275;24199;-77
2023/11/29 10:31:01;;;;;;;15.90;10.20;;;;;;;-2.20;85.45;94486.09;106850;1275;22657;-74
2023/11/29 10:33:31;;;;;;;27.00;13.70;;;;;;;-2.16;85.45;94488.20;107165;1275;25428;-75
2023/11/29 10:36:02;;;;;;;19.80;10.80;;;;;;;-2.11;85.50;94486.02;106975;1275;22656;-76
2023/11/29 10:38:42;;;;;;;27.90;13.40;;;;;;;-2.05;85.49;94491.78;107180;1275;23901;-76
2023/11/29 10:41:13;;;;;;;25.40;12.50;;;;;;;-1.99;85.33;94492.55;106747;1274;25053;-75
2023/11/29 10:43:44;;;;;;;20.50;11.50;;;;;;;-1.95;85.32;94490.70;106761;1275;22538;-76
2023/11/29 10:46:25;;;;;;;22.10;12.80;;;;;;;-1.90;85.30;94494.88;106816;1275;22652;-75
2023/11/29 10:49:35;;;;;;;21.30;10.80;;;;;;;-1.84;85.03;94496.34;107012;1274;24393;-76
2023/11/29 10:52:04;;;;;;;21.60;12.30;;;;;;;-1.80;84.84;94499.83;106839;1274;24286;-76
2023/11/29 10:54:33;;;;;;;23.90;11.70;;;;;;;-1.82;84.53;94498.94;106903;1273;22771;-75
2023/11/29 10:57:11;;;;;;;23.40;13.20;;;;;;;-1.89;84.38;94498.52;106847;1274;24202;-76
2023/11/29 10:59:46;;;;;;;23.90;12.80;;;;;;;-1.93;84.25;94503.11;106849;1273;22649;-76
2023/11/29 11:02:15;;;;;;;23.70;12.80;;;;;;;-2.00;84.32;94508.55;106811;1274;22646;-76
2023/11/29 11:04:47;;;;;;;17.60;10.30;;;;;;;-2.03;84.45;94515.75;106847;1273;26628;-76
2023/11/29 11:07:37;;;;;;;18.80;11.70;;;;;;;-2.12;84.57;94514.45;106893;1273;26557;-76
2023/11/29 11:10:09;;;;;;;20.20;12.30;;;;;;;-2.19;84.90;94515.04;106853;1274;24227;-76
2023/11/29 11:12:38;;;;;;;20.00;11.60;;;;;;;-2.21;85.13;94522.08;106878;1273;22631;-76
2023/11/29 11:15:19;;;;;;;25.90;13.20;;;;;;;-2.24;85.30;94525.31;107060;1274;22903;-76
2023/11/29 11:18:09;;;;;;;26.70;15.00;;;;;;;-2.26;85.30;94527.02;107009;1274;22527;-77
2023/11/29 11:20:41;;;;;;;17.90;10.90;;;;;;;-2.27;85.45;94531.12;107020;1274;24278;-78
2023/11/29 11:23:20;;;;;;;18.40;10.70;;;;;;;-2.32;85.34;94532.97;107008;1273;22537;-77
2023/11/29 11:25:55;;;;;;;24.10;12.60;;;;;;;-2.32;85.37;94543.63;107079;1273;25313;-77
2023/11/29 11:28:28;;;;;;;25.00;15.70;;;;;;;-2.31;85.67;94545.19;107087;1274;22978;-77
2023/11/29 11:30:56;;;;;;;22.70;14.30;;;;;;;-2.31;85.65;94549.86;106820;1273;25230;-77
2023/11/29 11:33:24;;;;;;;22.30;12.90;;;;;;;-2.29;85.88;94552.12;106855;1273;22533;-77